Arnold, Michigan
Current Conditions -  °F | °C
As of 9:55 PM on Thursday 27 Nov 2014 (Local Time) from KSAW Reporting Station
Broken Clouds Broken Clouds  
Wind Chill: -11°   Ceiling: 2700
Heat Index:   Visibility: 10mi
Dew Point: -2°   Wind: 7mph
Humidity: 85%   Direction: 280°W
Pressure: 30.28"   Gusts: NA
Location:  46.05°N, 87.49°W
Report Text: KSAW 280255Z 28006KT 10SM BKN027 M17/M19 A3028
Loading
Personal Weather Stations






























Interactive Weather Map New forecast layout! Learn more

10-Day Weather Forecast

Advertisements
Track Severe Weather on mobile